Time;durP1;ratioP1;P1;durP2;ratioP2;P2;SDS_P1;SDS_P2;PMS_P1;PMS_P2;Temp;Humidity;BMP_temperature;BMP_pressure;BME280_temperature;BME280_humidity;BME280_pressure;Samples;Min_cycle;Max_cycle;Signal;HPM_P1;HPM_P2
2022/05/23 00:00:19;;;;;;;5.97;2.10;;;;;15.30;93506.00;;;;7389184;19;20533;-77
2022/05/23 00:02:47;;;;;;;3.35;1.85;;;;;15.30;93507.00;;;;7391772;19;20145;-78
2022/05/23 00:05:22;;;;;;;2.33;1.55;;;;;15.40;93501.00;;;;7396081;19;20184;-78
2022/05/23 00:07:51;;;;;;;2.75;1.85;;;;;15.40;93494.00;;;;7396854;19;20212;-78
2022/05/23 00:10:21;;;;;;;2.03;1.80;;;;;15.30;93494.00;;;;7396603;19;20125;-77
2022/05/23 00:12:55;;;;;;;5.43;2.17;;;;;15.40;93482.00;;;;7397734;19;20132;-78
2022/05/23 00:15:23;;;;;;;4.65;1.80;;;;;15.30;93467.00;;;;7396409;19;20634;-78
2022/05/23 00:17:51;;;;;;;2.17;1.70;;;;;15.40;93459.00;;;;7396788;19;20133;-78
2022/05/23 00:20:26;;;;;;;3.92;1.88;;;;;15.30;93453.00;;;;7396992;19;20157;-78
2022/05/23 00:22:54;;;;;;;6.18;1.70;;;;;15.40;93449.00;;;;7397479;19;20134;-77
2022/05/23 00:25:22;;;;;;;2.08;1.70;;;;;15.50;93454.00;;;;7394610;19;20133;-80
2022/05/23 00:28:03;;;;;;;2.35;1.67;;;;;15.30;93449.00;;;;7396196;19;20188;-79
2022/05/23 00:30:37;;;;;;;2.17;1.70;;;;;15.40;93444.00;;;;7389416;19;20150;-79
2022/05/23 00:35:57;;;;;;;2.35;1.60;;;;;15.30;93433.00;;;;7395550;19;20615;-79
2022/05/23 00:38:31;;;;;;;2.05;1.50;;;;;15.50;93434.00;;;;7396343;19;20125;-78
2022/05/23 00:44:09;;;;;;;2.78;1.63;;;;;15.40;93435.00;;;;7396732;19;20147;-80
2022/05/23 00:46:53;;;;;;;3.88;1.50;;;;;15.30;93431.00;;;;7396521;19;20140;-79
2022/05/23 00:49:32;;;;;;;2.95;1.88;;;;;15.30;93416.00;;;;7397135;19;20602;-79
2022/05/23 00:52:05;;;;;;;4.93;2.03;;;;;15.30;93423.00;;;;7397862;19;20125;-79
2022/05/23 00:54:46;;;;;;;3.78;1.70;;;;;15.40;93420.00;;;;7398095;19;20132;-78
2022/05/23 00:57:19;;;;;;;1.60;1.50;;;;;15.40;93411.00;;;;7394950;19;20128;-78
2022/05/23 00:59:53;;;;;;;2.05;1.33;;;;;15.30;93408.00;;;;7395348;19;20483;-79
2022/05/23 01:02:29;;;;;;;2.60;1.65;;;;;15.50;93389.00;;;;7395663;19;20137;-79
2022/05/23 01:05:09;;;;;;;4.82;1.60;;;;;15.50;93385.00;;;;7394643;19;20145;-79
2022/05/23 01:07:36;;;;;;;6.00;1.80;;;;;15.50;93385.00;;;;7394638;19;20121;-79
2022/05/23 01:10:13;;;;;;;4.93;1.85;;;;;15.20;93374.00;;;;7394700;19;20224;-79
2022/05/23 01:12:42;;;;;;;2.25;1.45;;;;;15.30;93368.00;;;;7398574;19;20157;-78
2022/05/23 01:15:22;;;;;;;2.53;1.67;;;;;15.40;93362.00;;;;7392523;19;20144;-79
2022/05/23 01:18:00;;;;;;;4.65;1.65;;;;;15.40;93362.00;;;;7395355;19;20125;-79
2022/05/23 01:20:30;;;;;;;2.55;1.58;;;;;15.40;93363.00;;;;7393510;19;20603;-79
2022/05/23 01:23:23;;;;;;;1.92;1.65;;;;;15.40;93364.00;;;;7394553;19;20137;-79
2022/05/23 01:25:51;;;;;;;3.53;1.60;;;;;15.40;93365.00;;;;7393652;19;20160;-79
2022/05/23 01:28:40;;;;;;;5.75;2.05;;;;;15.50;93366.00;;;;7393130;19;20133;-78
2022/05/23 01:31:16;;;;;;;1.83;1.40;;;;;15.70;93367.00;;;;7393684;19;20160;-78
2022/05/23 01:33:50;;;;;;;3.13;1.70;;;;;15.60;93362.00;;;;7394682;19;20143;-79
2022/05/23 01:36:18;;;;;;;4.63;1.60;;;;;15.70;93361.00;;;;7394383;19;20603;-79
2022/05/23 01:38:45;;;;;;;3.00;1.67;;;;;15.60;93365.00;;;;7395285;19;20583;-79
2022/05/23 01:41:26;;;;;;;1.90;1.40;;;;;15.60;93361.00;;;;7393603;19;20508;-79
2022/05/23 01:43:54;;;;;;;1.58;1.42;;;;;15.60;93347.00;;;;7393852;19;20542;-78
2022/05/23 01:46:28;;;;;;;2.10;1.48;;;;;15.60;93349.00;;;;7392486;19;20128;-79
2022/05/23 01:48:56;;;;;;;2.83;1.63;;;;;15.50;93348.00;;;;7393146;19;20504;-78
2022/05/23 01:51:23;;;;;;;4.10;1.50;;;;;15.50;93346.00;;;;7392873;19;20510;-78
2022/05/23 01:53:57;;;;;;;2.50;1.48;;;;;15.60;93342.00;;;;7394097;19;20515;-78
2022/05/23 01:56:25;;;;;;;2.78;1.70;;;;;15.60;93350.00;;;;7393674;19;20145;-79
2022/05/23 02:01:48;;;;;;;2.13;1.50;;;;;15.60;93345.00;;;;7393213;19;20141;-79
2022/05/23 02:04:16;;;;;;;5.15;1.40;;;;;15.60;93336.00;;;;7392985;19;20505;-80
2022/05/23 02:06:43;;;;;;;3.70;1.40;;;;;15.60;93328.00;;;;7391275;19;20583;-79
2022/05/23 02:09:26;;;;;;;1.67;1.40;;;;;15.60;93331.00;;;;7394170;19;20158;-79
2022/05/23 02:11:54;;;;;;;1.83;1.52;;;;;15.60;93332.00;;;;7392755;19;20156;-79
2022/05/23 02:14:29;;;;;;;2.30;1.75;;;;;15.60;93320.00;;;;7392636;19;20136;-79
2022/05/23 02:16:57;;;;;;;2.58;1.40;;;;;15.70;93314.00;;;;7392231;19;20140;-79
2022/05/23 02:19:25;;;;;;;2.45;1.50;;;;;15.70;93314.00;;;;7394145;19;20141;-79
2022/05/23 02:21:58;;;;;;;2.08;1.52;;;;;15.80;93312.00;;;;7392221;19;20129;-78
2022/05/23 02:24:26;;;;;;;3.05;1.67;;;;;15.90;93303.00;;;;7394418;19;20117;-79
2022/05/23 02:26:53;;;;;;;5.60;1.58;;;;;16.00;93294.00;;;;7393258;19;20154;-78
2022/05/23 02:29:34;;;;;;;6.28;1.45;;;;;16.00;93295.00;;;;7393733;19;20627;-80
2022/05/23 02:32:10;;;;;;;1.42;1.33;;;;;16.00;93291.00;;;;7394403;19;20595;-78
2022/05/23 02:34:44;;;;;;;1.73;1.45;;;;;15.90;93287.00;;;;7395896;19;20131;-79
2022/05/23 02:37:12;;;;;;;2.58;1.60;;;;;16.00;93268.00;;;;7393950;19;20137;-79
2022/05/23 02:39:39;;;;;;;2.45;1.40;;;;;16.00;93265.00;;;;7393845;19;20553;-79
2022/05/23 02:42:15;;;;;;;2.10;1.60;;;;;16.00;93265.00;;;;7392341;19;20600;-78
2022/05/23 02:44:42;;;;;;;5.20;1.90;;;;;16.00;93261.00;;;;7392718;19;20144;-79
2022/05/23 02:47:10;;;;;;;2.15;1.40;;;;;16.00;93259.00;;;;7392023;19;20156;-79
2022/05/23 02:49:44;;;;;;;3.17;1.50;;;;;15.90;93255.00;;;;7391532;19;20150;-79
2022/05/23 02:52:12;;;;;;;4.35;1.60;;;;;15.90;93247.00;;;;7392600;19;20125;-79
2022/05/23 02:54:39;;;;;;;2.92;1.48;;;;;15.90;93238.00;;;;7392153;19;20177;-78
2022/05/23 02:57:13;;;;;;;1.67;1.42;;;;;16.00;93253.00;;;;7391383;19;20136;-79
2022/05/23 02:59:41;;;;;;;2.10;1.55;;;;;16.20;93253.00;;;;7392428;19;20147;-79
2022/05/23 03:05:02;;;;;;;3.85;1.60;;;;;16.20;93250.00;;;;7391850;19;20859;-78
2022/05/23 03:07:29;;;;;;;4.97;1.30;;;;;16.20;93248.00;;;;7391989;19;20136;-79
2022/05/23 03:09:57;;;;;;;3.97;1.65;;;;;16.30;93240.00;;;;7391345;19;20140;-80
2022/05/23 03:12:34;;;;;;;2.80;1.45;;;;;16.30;93235.00;;;;7390537;19;20164;-80
2022/05/23 03:15:03;;;;;;;3.45;1.70;;;;;16.30;93244.00;;;;7391974;19;20125;-79
2022/05/23 03:17:31;;;;;;;1.60;1.38;;;;;16.20;93246.00;;;;7392712;19;20132;-79
2022/05/23 03:20:07;;;;;;;2.38;1.83;;;;;16.40;93254.00;;;;7387334;19;20446;-79
2022/05/23 03:28:14;;;;;;;3.08;1.58;;;;;16.10;93267.00;;;;7389771;19;20149;-79
2022/05/23 03:30:54;;;;;;;3.05;1.60;;;;;16.20;93275.00;;;;7390086;19;20141;-79
2022/05/23 03:33:22;;;;;;;3.25;1.50;;;;;16.30;93280.00;;;;7390826;19;20148;-80
2022/05/23 03:35:56;;;;;;;2.50;1.50;;;;;16.30;93299.00;;;;7391276;19;20606;-80
2022/05/23 03:38:24;;;;;;;3.50;1.42;;;;;16.50;93299.00;;;;7395238;19;20144;-79
2022/05/23 03:40:51;;;;;;;2.92;1.30;;;;;16.40;93322.00;;;;7396402;19;20135;-79
2022/05/23 03:43:25;;;;;;;2.88;1.60;;;;;16.50;93365.00;;;;7395181;19;20129;-79
2022/05/23 03:45:53;;;;;;;2.65;1.55;;;;;16.10;93367.00;;;;7398456;19;20125;-79
2022/05/23 03:48:20;;;;;;;2.65;1.40;;;;;16.00;93369.00;;;;7394567;19;20174;-79
2022/05/23 03:50:55;;;;;;;2.13;1.70;;;;;15.90;93376.00;;;;7396949;19;20141;-79
2022/05/23 03:53:22;;;;;;;1.88;1.27;;;;;15.80;93384.00;;;;7397960;19;20141;-79
2022/05/23 03:55:51;;;;;;;2.03;1.70;;;;;15.70;93421.00;;;;7397915;19;20140;-81
2022/05/23 03:58:27;;;;;;;2.38;1.50;;;;;15.70;93445.00;;;;7397407;19;20608;-79
2022/05/23 04:01:10;;;;;;;4.82;1.60;;;;;15.80;93454.00;;;;7397221;19;20164;-80
2022/05/23 04:03:44;;;;;;;2.10;1.60;;;;;15.80;93452.00;;;;7396536;19;20137;-77
2022/05/23 04:06:12;;;;;;;2.25;1.50;;;;;15.60;93451.00;;;;7396580;19;20144;-79
2022/05/23 04:08:40;;;;;;;3.17;1.80;;;;;15.40;93471.00;;;;7400613;19;20125;-81
2022/05/23 04:11:14;;;;;;;5.45;2.00;;;;;14.80;93482.00;;;;7402527;19;20164;-80
2022/05/23 04:13:42;;;;;;;7.53;2.00;;;;;13.80;93500.00;;;;7406395;19;20133;-80
2022/05/23 04:16:09;;;;;;;3.40;2.00;;;;;13.20;93498.00;;;;7406364;19;20141;-80
2022/05/23 04:18:43;;;;;;;5.32;2.60;;;;;12.90;93497.00;;;;7400067;19;20117;-81
2022/05/23 04:21:11;;;;;;;3.42;1.90;;;;;12.90;93474.00;;;;7396506;19;20559;-80
2022/05/23 04:23:39;;;;;;;3.88;2.58;;;;;12.70;93464.00;;;;7397580;19;20132;-79
2022/05/23 04:26:14;;;;;;;2.95;2.35;;;;;12.60;93453.00;;;;7396321;19;20474;-80
2022/05/23 04:28:55;;;;;;;4.43;2.53;;;;;12.60;93435.00;;;;7392246;19;20152;-79
2022/05/23 04:31:30;;;;;;;3.95;2.30;;;;;12.80;93422.00;;;;7402266;19;20797;-80
2022/05/23 04:36:53;;;;;;;6.50;2.85;;;;;12.60;93377.00;;;;7405627;19;20155;-79
2022/05/23 04:39:21;;;;;;;4.03;2.67;;;;;12.80;93409.00;;;;7405845;19;20152;-80
2022/05/23 04:41:50;;;;;;;3.17;2.88;;;;;12.90;93430.00;;;;7418335;19;20233;-81
2022/05/23 04:50:23;;;;;;;4.03;3.30;;;;;13.00;93421.00;;;;7398976;19;20176;31
2022/05/23 04:56:01;;;;;;;5.28;3.50;;;;;13.00;93426.00;;;;7415870;19;20199;-80
2022/05/23 04:58:29;;;;;;;3.60;3.20;;;;;13.00;93399.00;;;;7410917;19;20215;-80
2022/05/23 05:01:04;;;;;;;7.35;3.80;;;;;13.00;93367.00;;;;7409180;19;20203;-79
2022/05/23 05:03:32;;;;;;;4.88;3.30;;;;;13.00;93343.00;;;;7414588;19;20133;-81
2022/05/23 05:06:00;;;;;;;7.25;3.42;;;;;13.00;93314.00;;;;7411101;19;20129;-80
2022/05/23 05:08:34;;;;;;;6.40;3.53;;;;;13.00;93299.00;;;;7411196;19;20151;-81
2022/05/23 05:11:05;;;;;;;4.38;3.90;;;;;13.20;93305.00;;;;7414532;19;20535;-81
2022/05/23 05:13:35;;;;;;;4.13;3.35;;;;;13.20;93298.00;;;;7411945;19;20148;-80
2022/05/23 05:16:12;;;;;;;4.43;3.38;;;;;13.20;93295.00;;;;7409252;19;20180;-80
2022/05/23 05:18:40;;;;;;;5.45;3.42;;;;;13.30;93296.00;;;;7407358;19;20136;-80
2022/05/23 05:21:10;;;;;;;8.15;3.60;;;;;13.50;93292.00;;;;7413669;19;20180;-80
2022/05/23 05:23:45;;;;;;;4.93;3.13;;;;;13.60;93285.00;;;;7408826;19;20128;-81
2022/05/23 05:26:13;;;;;;;5.28;3.33;;;;;13.70;93286.00;;;;7405555;19;20141;-80
2022/05/23 05:28:41;;;;;;;4.10;3.65;;;;;13.80;93283.00;;;;7405036;19;20149;-80
2022/05/23 05:31:31;;;;;;;3.92;3.58;;;;;13.90;93274.00;;;;7405288;19;20151;-79
2022/05/23 05:34:07;;;;;;;3.50;3.20;;;;;14.00;93259.00;;;;7401592;19;20125;-80
2022/05/23 05:36:47;;;;;;;4.15;3.38;;;;;14.10;93254.00;;;;7401136;19;20658;-79
2022/05/23 05:39:20;;;;;;;5.32;3.28;;;;;14.40;93229.00;;;;7400797;19;20651;-80
2022/05/23 05:42:13;;;;;;;6.75;3.30;;;;;14.50;93213.00;;;;7398532;19;20136;-78
2022/05/23 05:44:47;;;;;;;5.28;3.10;;;;;14.70;93215.00;;;;7399660;19;20140;-82
2022/05/23 05:47:22;;;;;;;2.95;2.60;;;;;14.80;93221.00;;;;7408600;19;20136;-79
2022/05/23 05:49:59;;;;;;;6.15;3.08;;;;;14.70;93232.00;;;;7399238;19;20133;-78
2022/05/23 05:52:34;;;;;;;2.97;2.70;;;;;14.70;93238.00;;;;7400965;19;20462;-78
2022/05/23 05:55:12;;;;;;;4.22;2.80;;;;;14.50;93254.00;;;;7399391;19;20176;-78
2022/05/23 05:57:53;;;;;;;6.15;3.03;;;;;14.40;93251.00;;;;7401994;19;20180;-80
2022/05/23 06:00:21;;;;;;;5.15;3.10;;;;;14.30;93248.00;;;;7409524;19;20147;-80
2022/05/23 06:02:56;;;;;;;4.90;2.97;;;;;14.20;93235.00;;;;7407144;19;20143;-79
2022/05/23 06:05:24;;;;;;;6.93;3.33;;;;;14.20;93228.00;;;;7405918;19;20151;-79
2022/05/23 06:13:32;;;;;;;5.20;3.10;;;;;14.20;93203.00;;;;7412542;19;20468;-78
2022/05/23 06:16:06;;;;;;;7.28;3.45;;;;;14.20;93197.00;;;;7405120;19;20137;-80
2022/05/23 06:18:33;;;;;;;6.55;3.63;;;;;14.30;93199.00;;;;7402254;19;20140;-80
2022/05/23 06:21:01;;;;;;;3.40;3.10;;;;;14.30;93195.00;;;;7410513;19;20133;-81
2022/05/23 06:23:39;;;;;;;6.38;3.30;;;;;14.50;93184.00;;;;7410562;19;20172;-80
2022/05/23 06:26:07;;;;;;;5.80;3.15;;;;;14.50;93177.00;;;;7408966;19;20172;-78
2022/05/23 06:28:38;;;;;;;7.60;3.40;;;;;14.70;93180.00;;;;7401680;19;20504;-79
2022/05/23 06:31:15;;;;;;;4.30;3.22;;;;;14.70;93186.00;;;;7409522;19;20141;-80
2022/05/23 06:33:47;;;;;;;6.05;3.17;;;;;14.80;93196.00;;;;7416773;19;20226;-79
2022/05/23 06:36:21;;;;;;;5.07;2.95;;;;;15.00;93203.00;;;;7410064;19;20144;-78
2022/05/23 06:38:49;;;;;;;4.18;2.80;;;;;15.10;93202.00;;;;7403326;19;20219;-79
2022/05/23 06:41:18;;;;;;;5.60;3.08;;;;;15.20;93189.00;;;;7407046;19;20147;-79
2022/05/23 06:43:53;;;;;;;5.82;3.03;;;;;15.30;93189.00;;;;7400216;19;20155;-80
2022/05/23 06:46:21;;;;;;;6.22;2.70;;;;;15.40;93197.00;;;;7401247;19;20193;-79
2022/05/23 06:48:50;;;;;;;9.40;2.78;;;;;15.60;93184.00;;;;7399615;19;20145;-80
2022/05/23 06:51:25;;;;;;;3.35;2.70;;;;;15.80;93178.00;;;;7400240;19;20191;-78
2022/05/23 06:54:01;;;;;;;3.60;2.50;;;;;15.90;93177.00;;;;7401157;19;20125;-79
2022/05/23 06:56:42;;;;;;;4.95;2.70;;;;;15.90;93177.00;;;;7401022;19;20165;-78
2022/05/23 06:59:11;;;;;;;3.42;2.55;;;;;16.10;93178.00;;;;7403423;19;20148;-77
2022/05/23 07:01:46;;;;;;;5.93;2.78;;;;;16.20;93172.00;;;;7396593;19;20136;-79
2022/05/23 07:04:15;;;;;;;3.55;2.60;;;;;16.20;93171.00;;;;7398687;19;20204;-78
2022/05/23 07:12:28;;;;;;;4.15;2.95;;;;;17.00;93165.00;;;;7404087;19;20140;-82
2022/05/23 07:15:03;;;;;;;5.95;2.90;;;;;16.90;93169.00;;;;7408359;19;20470;-79
2022/05/23 07:17:31;;;;;;;5.28;2.75;;;;;16.80;93169.00;;;;7409053;19;20588;-82
2022/05/23 07:19:59;;;;;;;3.80;2.85;;;;;16.80;93184.00;;;;7405192;19;20606;-77
2022/05/23 07:22:38;;;;;;;5.93;2.63;;;;;17.20;93181.00;;;;7404585;19;20507;-78
2022/05/23 07:25:06;;;;;;;2.63;2.33;;;;;17.50;93172.00;;;;7404220;19;20530;-83
2022/05/23 07:27:41;;;;;;;2.83;2.38;;;;;17.60;93168.00;;;;7404522;19;20148;-83
2022/05/23 07:30:09;;;;;;;2.90;2.60;;;;;17.60;93170.00;;;;7403085;19;20129;-81
2022/05/23 07:32:37;;;;;;;4.43;2.60;;;;;17.80;93159.00;;;;7405851;19;20149;-83
2022/05/23 07:35:12;;;;;;;3.33;2.53;;;;;18.00;93155.00;;;;7408196;19;20129;-81
2022/05/23 07:37:40;;;;;;;3.40;2.50;;;;;18.40;93162.00;;;;7407709;19;20685;-81
2022/05/23 07:40:09;;;;;;;4.30;2.60;;;;;18.40;93162.00;;;;7400252;19;20169;-77
2022/05/23 07:42:44;;;;;;;3.30;2.72;;;;;18.50;93182.00;;;;7405097;19;20718;-79
2022/05/23 07:45:13;;;;;;;2.72;2.38;;;;;18.60;93166.00;;;;7404476;19;20162;-79
2022/05/23 07:47:41;;;;;;;4.43;2.85;;;;;19.00;93177.00;;;;7404183;19;20129;-78
2022/05/23 07:50:17;;;;;;;4.68;2.30;;;;;18.80;93166.00;;;;7402419;19;20187;-78
2022/05/23 08:00:31;;;;;;;3.08;2.50;;;;;18.70;93169.00;;;;7404041;19;20140;-78
2022/05/23 08:01:32;;;;;;;4.97;2.58;;;;;18.30;93156.00;;;;7405899;19;20133;-80
2022/05/23 08:04:00;;;;;;;7.30;2.30;;;;;18.50;93155.00;;;;7402063;19;20165;-79
2022/05/23 08:06:29;;;;;;;3.95;2.65;;;;;18.70;93153.00;;;;7402343;19;20520;-81
2022/05/23 08:09:04;;;;;;;4.47;2.55;;;;;18.90;93153.00;;;;7403694;19;20137;-78
2022/05/23 08:11:32;;;;;;;2.95;1.98;;;;;18.90;93144.00;;;;7404259;19;20698;-78
2022/05/23 08:14:00;;;;;;;5.10;2.70;;;;;18.90;93139.00;;;;7400607;19;20201;-77
2022/05/23 08:16:35;;;;;;;4.90;2.35;;;;;18.80;93145.00;;;;7402879;19;20148;-78
2022/05/23 08:19:07;;;;;;;2.42;2.20;;;;;18.90;93131.00;;;;7403723;19;20173;-77
2022/05/23 08:21:53;;;;;;;3.53;2.45;;;;;18.90;93135.00;;;;7402110;19;20630;-79
2022/05/23 08:24:22;;;;;;;4.85;2.47;;;;;18.70;93126.00;;;;7400339;19;20148;-78
2022/05/23 08:26:56;;;;;;;3.08;2.30;;;;;18.50;93120.00;;;;7399040;19;20136;-77
2022/05/23 08:29:24;;;;;;;3.63;2.55;;;;;18.40;93116.00;;;;7404765;19;20137;-77
2022/05/23 08:31:52;;;;;;;3.25;2.40;;;;;18.30;93112.00;;;;7401821;19;20141;-76
2022/05/23 08:34:26;;;;;;;3.50;2.40;;;;;18.40;93114.00;;;;7403388;19;20173;-78
2022/05/23 08:36:55;;;;;;;4.03;2.72;;;;;18.50;93116.00;;;;7403267;19;20121;-78
2022/05/23 08:39:23;;;;;;;6.70;2.65;;;;;18.60;93122.00;;;;7402877;19;20599;-77
2022/05/23 08:41:57;;;;;;;4.22;2.45;;;;;18.80;93119.00;;;;7398767;19;20621;-76
2022/05/23 08:44:45;;;;;;;4.90;2.75;;;;;18.80;93128.00;;;;7402390;19;20148;-77
2022/05/23 08:47:41;;;;;;;6.38;2.78;;;;;19.10;93131.00;;;;7401550;19;20129;-77
2022/05/23 08:50:22;;;;;;;3.00;2.25;;;;;19.20;93126.00;;;;7398494;19;20167;-77
2022/05/23 08:53:06;;;;;;;3.65;2.33;;;;;19.60;93136.00;;;;7400438;19;20141;-77
2022/05/23 08:55:51;;;;;;;3.53;2.60;;;;;19.60;93131.00;;;;7401008;19;20172;-77
2022/05/23 08:58:52;;;;;;;3.95;2.50;;;;;19.70;93117.00;;;;7399884;19;20129;-77
2022/05/23 09:01:27;;;;;;;3.78;2.50;;;;;19.80;93127.00;;;;7400362;19;20493;-76
2022/05/23 09:04:06;;;;;;;4.90;2.75;;;;;19.50;93122.00;;;;7399795;19;20164;-76
2022/05/23 09:06:41;;;;;;;5.32;2.75;;;;;19.50;93130.00;;;;7400484;19;20152;-77
2022/05/23 09:09:18;;;;;;;4.40;3.22;;;;;19.20;93119.00;;;;7401922;19;20148;-78
2022/05/23 09:11:50;;;;;;;3.97;2.60;;;;;18.90;93126.00;;;;7398665;19;20145;-76
2022/05/23 09:14:25;;;;;;;4.93;2.58;;;;;18.70;93128.00;;;;7399066;19;20145;-76
2022/05/23 09:16:57;;;;;;;3.40;2.47;;;;;18.70;93120.00;;;;7400792;19;20148;-76
2022/05/23 09:19:42;;;;;;;5.38;2.72;;;;;18.80;93120.00;;;;7401703;19;20148;-76
2022/05/23 09:22:38;;;;;;;3.22;2.63;;;;;19.00;93113.00;;;;7397417;19;20176;-77
2022/05/23 09:25:16;;;;;;;3.90;2.60;;;;;19.10;93105.00;;;;7400872;19;20176;-75
2022/05/23 09:28:03;;;;;;;5.10;2.50;;;;;19.10;93105.00;;;;7400490;19;20137;-77
2022/05/23 09:30:40;;;;;;;3.45;2.38;;;;;19.20;93102.00;;;;7399017;19;20163;-78
2022/05/23 09:33:14;;;;;;;3.90;2.42;;;;;19.70;93092.00;;;;7400526;19;20157;-74
2022/05/23 09:35:56;;;;;;;4.72;2.70;;;;;20.20;93082.00;;;;7397612;19;20121;-74
2022/05/23 09:38:30;;;;;;;3.95;2.40;;;;;20.60;93099.00;;;;7399917;19;20157;-77
2022/05/23 09:41:05;;;;;;;4.32;2.50;;;;;20.70;93099.00;;;;7399827;19;20195;-78
2022/05/23 09:49:46;;;;;;;2.85;2.50;;;;;21.60;93133.00;;;;7394291;19;20141;-77
2022/05/23 09:52:32;;;;;;;3.80;2.10;;;;;21.70;93133.00;;;;7398153;19;20223;-76
2022/05/23 09:55:10;;;;;;;3.30;2.58;;;;;21.20;93145.00;;;;7398858;19;20159;-77
2022/05/23 09:58:00;;;;;;;2.42;2.10;;;;;21.20;93152.00;;;;7400685;19;20678;-77
2022/05/23 10:00:35;;;;;;;3.70;2.25;;;;;20.90;93145.00;;;;7396971;19;20160;-77
2022/05/23 10:03:19;;;;;;;3.45;2.35;;;;;21.00;93156.00;;;;7399090;19;20128;-76
2022/05/23 10:06:00;;;;;;;5.15;2.22;;;;;20.90;93154.00;;;;7396467;19;20139;-77
2022/05/23 10:08:39;;;;;;;4.05;2.22;;;;;20.90;93156.00;;;;7396535;19;20124;-76
2022/05/23 10:11:21;;;;;;;4.15;2.50;;;;;20.90;93162.00;;;;7398145;19;20148;-77
2022/05/23 10:13:58;;;;;;;3.95;2.10;;;;;21.10;93160.00;;;;7396683;19;20144;-77
2022/05/23 10:16:32;;;;;;;7.80;2.30;;;;;21.30;93144.00;;;;7398089;19;20144;-76
2022/05/23 10:19:08;;;;;;;4.13;2.60;;;;;21.70;93151.00;;;;7399459;19;20149;-77
2022/05/23 10:21:44;;;;;;;5.80;2.40;;;;;22.10;93141.00;;;;7395511;19;20644;-77
2022/05/23 10:24:17;;;;;;;2.75;2.10;;;;;22.40;93156.00;;;;7395971;19;20141;-78
2022/05/23 10:26:54;;;;;;;4.88;2.47;;;;;22.40;93167.00;;;;7397579;19;20159;-78
2022/05/23 10:29:58;;;;;;;4.68;2.60;;;;;22.10;93176.00;;;;7399816;19;20212;-79
2022/05/23 10:33:05;;;;;;;6.05;2.45;;;;;21.50;93194.00;;;;7397110;19;20125;-77
2022/05/23 10:36:04;;;;;;;4.57;2.40;;;;;21.10;93202.00;;;;7400189;19;21311;-78
2022/05/23 10:42:13;;;;;;;4.00;2.33;;;;;20.30;93204.00;;;;7397570;19;20148;-77
2022/05/23 10:45:12;;;;;;;4.22;2.50;;;;;20.00;93251.00;;;;7395917;19;20200;-78
2022/05/23 10:48:05;;;;;;;5.07;2.75;;;;;19.40;93257.00;;;;7393705;19;20208;-78
2022/05/23 10:50:45;;;;;;;5.05;2.78;;;;;19.00;93271.00;;;;7396975;19;20161;-78
2022/05/23 10:53:41;;;;;;;4.45;2.85;;;;;18.70;93291.00;;;;7397542;19;20136;-78
2022/05/23 10:56:36;;;;;;;5.78;3.10;;;;;18.40;93304.00;;;;7388858;19;20176;-77
2022/05/23 10:59:18;;;;;;;7.97;2.90;;;;;18.10;93298.00;;;;7395810;19;20643;-78
2022/05/23 11:02:05;;;;;;;4.40;3.35;;;;;17.70;93316.00;;;;7392603;19;20215;-79
2022/05/23 11:05:01;;;;;;;5.50;3.20;;;;;17.50;93308.00;;;;7395193;19;20144;-79
2022/05/23 11:07:54;;;;;;;5.50;2.80;;;;;17.40;93292.00;;;;7394600;19;20129;-78
2022/05/23 11:10:56;;;;;;;5.63;2.60;;;;;17.30;93294.00;;;;7392391;19;20965;-79
2022/05/23 11:14:01;;;;;;;5.72;2.70;;;;;17.20;93296.00;;;;7393707;19;20155;-78
2022/05/23 11:16:56;;;;;;;6.35;2.97;;;;;17.30;93296.00;;;;7391558;19;20133;-78
2022/05/23 11:19:36;;;;;;;11.13;3.33;;;;;17.20;93302.00;;;;7392702;19;20522;-77
2022/05/23 11:22:22;;;;;;;5.97;2.90;;;;;17.00;93286.00;;;;7387781;19;20578;-78
2022/05/23 11:25:08;;;;;;;8.68;2.90;;;;;16.80;93294.00;;;;7391352;19;20884;-78
2022/05/23 11:33:41;;;;;;;4.65;3.28;;;;;16.50;93274.00;;;;7399287;19;20714;-81
2022/05/23 11:36:15;;;;;;;7.97;3.90;;;;;16.50;93248.00;;;;7396932;19;20236;-79
2022/05/23 11:38:50;;;;;;;5.45;3.92;;;;;16.70;93223.00;;;;7398624;19;20525;-79
2022/05/23 11:41:32;;;;;;;9.90;4.57;;;;;16.60;93219.00;;;;7398481;19;20501;-78
2022/05/23 11:44:49;;;;;;;10.52;4.90;;;;;16.70;93167.00;;;;7398296;19;20125;-78
2022/05/23 11:47:25;;;;;;;10.15;5.07;;;;;16.80;93128.00;;;;7400083;19;20589;-76
2022/05/23 11:50:06;;;;;;;5.38;4.78;;;;;16.80;93081.00;;;;7397787;19;20138;-78
2022/05/23 11:52:42;;;;;;;7.85;5.50;;;;;16.70;93056.00;;;;7397243;19;20143;-78
2022/05/23 11:55:58;;;;;;;7.97;5.65;;;;;16.70;93040.00;;;;7397253;19;20160;-77
2022/05/23 11:58:43;;;;;;;9.90;6.07;;;;;16.70;93033.00;;;;7397615;19;20478;-77
2022/05/23 12:01:22;;;;;;;10.77;5.53;;;;;16.70;93023.00;;;;7404375;19;20488;-77
2022/05/23 12:03:52;;;;;;;10.15;5.63;;;;;16.60;93018.00;;;;7401746;19;20125;-79
2022/05/23 12:06:30;;;;;;;7.97;5.32;;;;;16.60;92996.00;;;;7403133;19;20148;-78
2022/05/23 12:09:01;;;;;;;8.60;5.40;;;;;16.70;92990.00;;;;7401130;19;20133;-78
2022/05/23 12:11:37;;;;;;;6.50;4.68;;;;;16.70;92974.00;;;;7403765;19;20149;-77
2022/05/23 12:14:16;;;;;;;7.32;4.97;;;;;17.30;92967.00;;;;7401696;19;20149;-77
2022/05/23 12:16:57;;;;;;;9.02;5.22;;;;;17.10;92973.00;;;;7404069;19;20169;-77
2022/05/23 12:19:50;;;;;;;8.07;4.80;;;;;17.20;92993.00;;;;7405679;19;20137;-79
2022/05/23 12:22:58;;;;;;;5.97;3.60;;;;;17.30;92998.00;;;;7403328;19;20145;-78
2022/05/23 12:25:27;;;;;;;6.80;3.95;;;;;17.60;93016.00;;;;7403755;19;20544;-78
2022/05/23 12:28:02;;;;;;;5.63;4.22;;;;;17.90;92998.00;;;;7402243;19;20519;-76
2022/05/23 12:31:07;;;;;;;5.20;3.97;;;;;18.30;93004.00;;;;7400636;19;20145;-80
2022/05/23 12:34:12;;;;;;;6.95;3.65;;;;;18.70;92992.00;;;;7399385;19;20152;-77
2022/05/23 12:36:52;;;;;;;5.90;3.97;;;;;19.10;93004.00;;;;7401906;19;20144;-81
2022/05/23 12:39:44;;;;;;;7.93;3.72;;;;;19.30;93006.00;;;;7404227;19;20499;-81
2022/05/23 12:42:33;;;;;;;5.53;3.40;;;;;19.50;92996.00;;;;7402087;19;20132;-84
2022/05/23 12:45:15;;;;;;;5.55;3.03;;;;;20.00;92992.00;;;;7404107;19;20497;-78
2022/05/23 12:47:49;;;;;;;6.32;3.20;;;;;20.40;92978.00;;;;7402743;19;20538;-77
2022/05/23 12:50:48;;;;;;;6.70;3.08;;;;;20.90;92973.00;;;;7399750;19;20152;-78
2022/05/23 12:53:33;;;;;;;3.63;2.67;;;;;20.80;92957.00;;;;7402684;19;20125;-77
2022/05/23 12:56:17;;;;;;;5.63;3.50;;;;;20.60;92946.00;;;;7396757;19;20149;-76
2022/05/23 12:58:51;;;;;;;7.90;3.33;;;;;20.60;92931.00;;;;7400363;19;20500;-76
2022/05/23 13:01:33;;;;;;;4.38;2.85;;;;;20.90;92933.00;;;;7403541;19;20137;-76
2022/05/23 13:04:19;;;;;;;8.75;2.50;;;;;21.70;92928.00;;;;7400605;19;20148;-77
2022/05/23 13:06:59;;;;;;;6.63;2.67;;;;;22.00;92926.00;;;;7401614;19;20200;-77
2022/05/23 13:09:52;;;;;;;4.00;2.80;;;;;22.50;92923.00;;;;7397023;19;20129;-77
2022/05/23 13:12:42;;;;;;;4.13;2.78;;;;;22.70;92935.00;;;;7400157;19;20141;-77
2022/05/23 13:15:24;;;;;;;5.80;2.80;;;;;23.40;92927.00;;;;7401253;19;20219;-78
2022/05/23 13:23:59;;;;;;;6.95;3.15;;;;;24.50;92925.00;;;;7395782;19;20140;-76
2022/05/23 13:26:32;;;;;;;5.47;2.40;;;;;24.50;92930.00;;;;7398523;19;20152;-77
2022/05/23 13:29:13;;;;;;;4.97;2.15;;;;;24.60;92925.00;;;;7400606;19;20129;-78
2022/05/23 13:31:43;;;;;;;6.32;3.30;;;;;24.70;92927.00;;;;7401992;19;20161;-76
2022/05/23 13:34:18;;;;;;;5.10;2.72;;;;;24.80;92919.00;;;;7399432;19;20226;-80
2022/05/23 13:36:48;;;;;;;6.40;2.47;;;;;24.70;92925.00;;;;7404237;19;20149;-78
2022/05/23 13:39:18;;;;;;;7.00;2.58;;;;;25.00;92920.00;;;;7404848;19;20136;-77
2022/05/23 13:41:53;;;;;;;10.07;2.97;;;;;25.00;92927.00;;;;7398770;19;20139;-77
2022/05/23 13:44:26;;;;;;;6.97;2.97;;;;;24.50;92923.00;;;;7398923;19;20514;-77
2022/05/23 13:47:11;;;;;;;16.15;2.72;;;;;24.40;92910.00;;;;7400467;19;20131;-82
2022/05/23 13:49:48;;;;;;;10.20;2.50;;;;;24.60;92911.00;;;;7400492;19;20619;-81
2022/05/23 13:52:34;;;;;;;10.18;2.90;;;;;24.70;92920.00;;;;7401819;19;20172;-82
2022/05/23 13:55:14;;;;;;;10.27;2.85;;;;;24.20;92912.00;;;;7401365;19;20153;-78
2022/05/23 13:58:08;;;;;;;6.00;2.53;;;;;24.50;92919.00;;;;7396255;19;20148;-82
2022/05/23 14:00:39;;;;;;;6.82;2.63;;;;;24.40;92918.00;;;;7400405;19;20188;-80
2022/05/23 14:03:41;;;;;;;5.72;2.58;;;;;24.60;92913.00;;;;7399789;19;20153;-80
2022/05/23 14:06:15;;;;;;;7.57;2.58;;;;;24.40;92917.00;;;;7399587;19;20596;-78
2022/05/23 14:09:00;;;;;;;8.90;2.75;;;;;24.40;92922.00;;;;7392588;19;20139;-80
2022/05/23 14:11:38;;;;;;;8.25;2.20;;;;;24.60;92914.00;;;;7400521;19;20595;-79